sensor_id;sensor_type;location;lat;lon;timestamp;temperature;humidity
19164;DHT22;9714;51.208;4.242;2023-12-22T00:02:22;11.10;99.90
19164;DHT22;9714;51.208;4.242;2023-12-22T00:04:51;11.00;99.90
19164;DHT22;9714;51.208;4.242;2023-12-22T00:07:18;11.10;99.90
19164;DHT22;9714;51.208;4.242;2023-12-22T00:09:48;11.00;99.90
19164;DHT22;9714;51.208;4.242;2023-12-22T00:12:15;10.80;99.90
19164;DHT22;9714;51.208;4.242;2023-12-22T00:14:42;10.70;99.90
19164;DHT22;9714;51.208;4.242;2023-12-22T00:17:10;10.80;99.90
19164;DHT22;9714;51.208;4.242;2023-12-22T00:19:37;10.80;99.90
19164;DHT22;9714;51.208;4.242;2023-12-22T00:22:04;10.80;99.90
19164;DHT22;9714;51.208;4.242;2023-12-22T00:24:30;10.70;99.90
19164;DHT22;9714;51.208;4.242;2023-12-22T00:26:58;10.70;99.90
19164;DHT22;9714;51.208;4.242;2023-12-22T00:29:26;10.80;99.90
19164;DHT22;9714;51.208;4.242;2023-12-22T00:31:54;10.80;99.90
19164;DHT22;9714;51.208;4.242;2023-12-22T00:34:22;10.80;99.90
19164;DHT22;9714;51.208;4.242;2023-12-22T00:36:49;10.90;99.90
19164;DHT22;9714;51.208;4.242;2023-12-22T00:39:16;10.90;99.90
19164;DHT22;9714;51.208;4.242;2023-12-22T00:41:43;10.90;99.90
19164;DHT22;9714;51.208;4.242;2023-12-22T00:44:12;10.80;99.90
19164;DHT22;9714;51.208;4.242;2023-12-22T00:46:40;10.60;99.90
19164;DHT22;9714;51.208;4.242;2023-12-22T00:49:08;10.70;99.90
19164;DHT22;9714;51.208;4.242;2023-12-22T00:51:36;10.80;99.90
19164;DHT22;9714;51.208;4.242;2023-12-22T00:54:07;10.90;99.90
19164;DHT22;9714;51.208;4.242;2023-12-22T00:56:36;10.80;99.90
19164;DHT22;9714;51.208;4.242;2023-12-22T00:59:04;10.80;99.90
19164;DHT22;9714;51.208;4.242;2023-12-22T01:01:33;10.80;99.90
19164;DHT22;9714;51.208;4.242;2023-12-22T01:04:00;10.90;99.90
19164;DHT22;9714;51.208;4.242;2023-12-22T01:06:28;10.90;99.90
19164;DHT22;9714;51.208;4.242;2023-12-22T01:09:03;10.70;99.90
19164;DHT22;9714;51.208;4.242;2023-12-22T01:11:31;10.60;99.90
19164;DHT22;9714;51.208;4.242;2023-12-22T01:13:59;10.60;99.90
19164;DHT22;9714;51.208;4.242;2023-12-22T01:16:27;10.50;99.90
19164;DHT22;9714;51.208;4.242;2023-12-22T01:18:56;10.60;99.90
19164;DHT22;9714;51.208;4.242;2023-12-22T01:21:23;10.60;99.90
19164;DHT22;9714;51.208;4.242;2023-12-22T01:23:50;10.60;99.90
19164;DHT22;9714;51.208;4.242;2023-12-22T01:26:17;10.50;99.90
19164;DHT22;9714;51.208;4.242;2023-12-22T01:28:47;10.50;99.90
19164;DHT22;9714;51.208;4.242;2023-12-22T01:31:17;10.70;99.90
19164;DHT22;9714;51.208;4.242;2023-12-22T01:33:45;10.60;99.90
19164;DHT22;9714;51.208;4.242;2023-12-22T01:36:15;10.70;99.90
19164;DHT22;9714;51.208;4.242;2023-12-22T01:38:45;10.70;99.90
19164;DHT22;9714;51.208;4.242;2023-12-22T01:41:14;10.70;99.90
19164;DHT22;9714;51.208;4.242;2023-12-22T01:43:43;10.80;99.90
19164;DHT22;9714;51.208;4.242;2023-12-22T01:46:11;10.80;99.90
19164;DHT22;9714;51.208;4.242;2023-12-22T01:48:39;10.70;99.90
19164;DHT22;9714;51.208;4.242;2023-12-22T01:51:07;10.70;99.90
19164;DHT22;9714;51.208;4.242;2023-12-22T01:53:39;10.60;99.90
19164;DHT22;9714;51.208;4.242;2023-12-22T01:56:08;10.70;99.90
19164;DHT22;9714;51.208;4.242;2023-12-22T01:58:36;10.70;99.90
19164;DHT22;9714;51.208;4.242;2023-12-22T02:01:04;10.70;99.90
19164;DHT22;9714;51.208;4.242;2023-12-22T02:03:32;10.80;99.90
19164;DHT22;9714;51.208;4.242;2023-12-22T02:05:59;10.80;99.90
19164;DHT22;9714;51.208;4.242;2023-12-22T02:08:28;10.70;99.90
19164;DHT22;9714;51.208;4.242;2023-12-22T02:11:00;10.70;99.90
19164;DHT22;9714;51.208;4.242;2023-12-22T02:13:28;10.70;99.90
19164;DHT22;9714;51.208;4.242;2023-12-22T02:16:00;10.60;99.90
19164;DHT22;9714;51.208;4.242;2023-12-22T02:18:33;10.50;99.90
19164;DHT22;9714;51.208;4.242;2023-12-22T02:21:02;10.50;99.90
19164;DHT22;9714;51.208;4.242;2023-12-22T02:23:30;10.50;99.90
19164;DHT22;9714;51.208;4.242;2023-12-22T02:26:06;10.50;99.90
19164;DHT22;9714;51.208;4.242;2023-12-22T02:28:37;10.50;99.90
19164;DHT22;9714;51.208;4.242;2023-12-22T02:31:13;10.50;99.90
19164;DHT22;9714;51.208;4.242;2023-12-22T02:33:44;10.40;99.90
19164;DHT22;9714;51.208;4.242;2023-12-22T02:36:13;10.50;99.90
19164;DHT22;9714;51.208;4.242;2023-12-22T02:38:45;10.50;99.90
19164;DHT22;9714;51.208;4.242;2023-12-22T02:41:13;10.50;99.90
19164;DHT22;9714;51.208;4.242;2023-12-22T02:43:40;10.60;99.90
19164;DHT22;9714;51.208;4.242;2023-12-22T02:46:13;10.50;99.90
19164;DHT22;9714;51.208;4.242;2023-12-22T02:48:40;10.50;99.90
19164;DHT22;9714;51.208;4.242;2023-12-22T02:51:09;10.50;99.90
19164;DHT22;9714;51.208;4.242;2023-12-22T02:53:37;10.50;99.90
19164;DHT22;9714;51.208;4.242;2023-12-22T02:56:07;10.50;99.90
19164;DHT22;9714;51.208;4.242;2023-12-22T02:58:35;10.50;99.90
19164;DHT22;9714;51.208;4.242;2023-12-22T03:01:02;10.60;99.90
19164;DHT22;9714;51.208;4.242;2023-12-22T03:03:29;10.60;99.90
19164;DHT22;9714;51.208;4.242;2023-12-22T03:06:03;10.50;99.90
19164;DHT22;9714;51.208;4.242;2023-12-22T03:08:30;10.60;99.90
19164;DHT22;9714;51.208;4.242;2023-12-22T03:10:57;10.50;99.90
19164;DHT22;9714;51.208;4.242;2023-12-22T03:13:25;10.50;99.90
19164;DHT22;9714;51.208;4.242;2023-12-22T03:15:52;10.50;99.90
19164;DHT22;9714;51.208;4.242;2023-12-22T03:18:20;10.50;99.90
19164;DHT22;9714;51.208;4.242;2023-12-22T03:20:49;10.50;99.90
19164;DHT22;9714;51.208;4.242;2023-12-22T03:23:16;10.40;99.90
19164;DHT22;9714;51.208;4.242;2023-12-22T03:25:43;10.50;99.90
19164;DHT22;9714;51.208;4.242;2023-12-22T03:28:12;10.40;99.90
19164;DHT22;9714;51.208;4.242;2023-12-22T03:30:41;10.40;99.90
19164;DHT22;9714;51.208;4.242;2023-12-22T03:33:09;10.40;99.90
19164;DHT22;9714;51.208;4.242;2023-12-22T03:35:46;10.50;99.90
19164;DHT22;9714;51.208;4.242;2023-12-22T03:38:17;10.50;99.90
19164;DHT22;9714;51.208;4.242;2023-12-22T03:40:45;10.40;99.90
19164;DHT22;9714;51.208;4.242;2023-12-22T03:43:18;10.40;99.90
19164;DHT22;9714;51.208;4.242;2023-12-22T03:46:03;10.30;99.90
19164;DHT22;9714;51.208;4.242;2023-12-22T03:48:36;10.40;99.90
19164;DHT22;9714;51.208;4.242;2023-12-22T03:51:04;10.40;99.90
19164;DHT22;9714;51.208;4.242;2023-12-22T03:53:31;10.30;99.90
19164;DHT22;9714;51.208;4.242;2023-12-22T03:55:59;10.20;99.90
19164;DHT22;9714;51.208;4.242;2023-12-22T03:58:27;10.20;99.90
19164;DHT22;9714;51.208;4.242;2023-12-22T04:00:55;10.10;99.90
19164;DHT22;9714;51.208;4.242;2023-12-22T04:03:24;10.10;99.90
19164;DHT22;9714;51.208;4.242;2023-12-22T04:05:53;10.20;99.90
19164;DHT22;9714;51.208;4.242;2023-12-22T04:08:20;10.10;99.90
19164;DHT22;9714;51.208;4.242;2023-12-22T04:10:49;10.10;99.90
19164;DHT22;9714;51.208;4.242;2023-12-22T04:13:17;10.10;99.90
19164;DHT22;9714;51.208;4.242;2023-12-22T04:15:44;10.20;99.90
19164;DHT22;9714;51.208;4.242;2023-12-22T04:18:11;10.20;99.90
19164;DHT22;9714;51.208;4.242;2023-12-22T04:20:40;10.30;99.90
19164;DHT22;9714;51.208;4.242;2023-12-22T04:23:09;10.30;99.90
19164;DHT22;9714;51.208;4.242;2023-12-22T04:25:36;10.30;99.90
19164;DHT22;9714;51.208;4.242;2023-12-22T04:28:04;10.40;99.90
19164;DHT22;9714;51.208;4.242;2023-12-22T04:30:31;10.30;99.90
19164;DHT22;9714;51.208;4.242;2023-12-22T04:32:58;10.50;99.90
19164;DHT22;9714;51.208;4.242;2023-12-22T04:35:27;10.50;99.90
19164;DHT22;9714;51.208;4.242;2023-12-22T04:37:55;10.40;99.90
19164;DHT22;9714;51.208;4.242;2023-12-22T04:40:24;10.30;99.90
19164;DHT22;9714;51.208;4.242;2023-12-22T04:42:51;10.20;99.90
19164;DHT22;9714;51.208;4.242;2023-12-22T04:45:18;10.30;99.90
19164;DHT22;9714;51.208;4.242;2023-12-22T04:47:48;10.20;99.90
19164;DHT22;9714;51.208;4.242;2023-12-22T04:50:15;10.20;99.90
19164;DHT22;9714;51.208;4.242;2023-12-22T04:52:43;10.20;99.90
19164;DHT22;9714;51.208;4.242;2023-12-22T04:55:12;10.20;99.90
19164;DHT22;9714;51.208;4.242;2023-12-22T04:57:40;10.30;99.90
19164;DHT22;9714;51.208;4.242;2023-12-22T05:00:08;10.40;99.90
19164;DHT22;9714;51.208;4.242;2023-12-22T05:02:35;10.40;99.90
19164;DHT22;9714;51.208;4.242;2023-12-22T05:05:03;10.50;99.90
19164;DHT22;9714;51.208;4.242;2023-12-22T05:07:30;10.50;99.90
19164;DHT22;9714;51.208;4.242;2023-12-22T05:09:58;10.50;99.90
19164;DHT22;9714;51.208;4.242;2023-12-22T05:12:28;10.50;99.90
19164;DHT22;9714;51.208;4.242;2023-12-22T05:14:56;10.60;99.90
19164;DHT22;9714;51.208;4.242;2023-12-22T05:17:23;10.50;99.90
19164;DHT22;9714;51.208;4.242;2023-12-22T05:19:50;10.50;99.90
19164;DHT22;9714;51.208;4.242;2023-12-22T05:22:19;10.60;99.90
19164;DHT22;9714;51.208;4.242;2023-12-22T05:24:46;10.70;99.90
19164;DHT22;9714;51.208;4.242;2023-12-22T05:27:13;10.70;99.90
19164;DHT22;9714;51.208;4.242;2023-12-22T05:29:42;10.60;99.90
19164;DHT22;9714;51.208;4.242;2023-12-22T05:32:09;10.60;99.90
19164;DHT22;9714;51.208;4.242;2023-12-22T05:34:37;10.60;99.90
19164;DHT22;9714;51.208;4.242;2023-12-22T05:37:05;10.60;99.90
19164;DHT22;9714;51.208;4.242;2023-12-22T05:39:32;10.70;99.90
19164;DHT22;9714;51.208;4.242;2023-12-22T05:41:59;10.70;99.90
19164;DHT22;9714;51.208;4.242;2023-12-22T05:44:26;10.90;99.90
19164;DHT22;9714;51.208;4.242;2023-12-22T05:46:57;10.80;99.90
19164;DHT22;9714;51.208;4.242;2023-12-22T05:49:24;10.80;99.90
19164;DHT22;9714;51.208;4.242;2023-12-22T05:51:51;10.80;99.90
19164;DHT22;9714;51.208;4.242;2023-12-22T05:54:24;10.80;99.90
19164;DHT22;9714;51.208;4.242;2023-12-22T05:56:57;10.90;99.90
19164;DHT22;9714;51.208;4.242;2023-12-22T05:59:31;11.00;99.90
19164;DHT22;9714;51.208;4.242;2023-12-22T06:02:01;11.00;99.90
19164;DHT22;9714;51.208;4.242;2023-12-22T06:04:32;11.00;99.90
19164;DHT22;9714;51.208;4.242;2023-12-22T06:07:06;11.00;99.90
19164;DHT22;9714;51.208;4.242;2023-12-22T06:09:39;10.90;99.90
19164;DHT22;9714;51.208;4.242;2023-12-22T06:12:14;10.90;99.90
19164;DHT22;9714;51.208;4.242;2023-12-22T06:14:42;11.00;99.90
19164;DHT22;9714;51.208;4.242;2023-12-22T06:17:13;11.00;99.90
19164;DHT22;9714;51.208;4.242;2023-12-22T06:19:41;11.20;99.90
19164;DHT22;9714;51.208;4.242;2023-12-22T06:22:11;11.10;99.90
19164;DHT22;9714;51.208;4.242;2023-12-22T06:24:44;11.00;99.90
19164;DHT22;9714;51.208;4.242;2023-12-22T06:27:12;11.00;99.90
19164;DHT22;9714;51.208;4.242;2023-12-22T06:29:45;11.00;99.90
19164;DHT22;9714;51.208;4.242;2023-12-22T06:32:17;11.00;99.90
19164;DHT22;9714;51.208;4.242;2023-12-22T06:34:48;11.00;99.90
19164;DHT22;9714;51.208;4.242;2023-12-22T06:37:16;11.10;99.90
19164;DHT22;9714;51.208;4.242;2023-12-22T06:39:48;11.10;99.90
19164;DHT22;9714;51.208;4.242;2023-12-22T06:45:38;11.10;99.90
19164;DHT22;9714;51.208;4.242;2023-12-22T06:48:13;11.10;99.90
19164;DHT22;9714;51.208;4.242;2023-12-22T06:50:40;11.10;99.90
19164;DHT22;9714;51.208;4.242;2023-12-22T06:53:10;11.10;99.90
19164;DHT22;9714;51.208;4.242;2023-12-22T06:55:46;11.00;99.90
19164;DHT22;9714;51.208;4.242;2023-12-22T07:01:26;10.90;99.90
19164;DHT22;9714;51.208;4.242;2023-12-22T07:03:59;10.80;99.90
19164;DHT22;9714;51.208;4.242;2023-12-22T07:06:29;10.80;99.90
19164;DHT22;9714;51.208;4.242;2023-12-22T07:11:50;10.80;99.90
19164;DHT22;9714;51.208;4.242;2023-12-22T07:14:27;10.70;99.90
19164;DHT22;9714;51.208;4.242;2023-12-22T07:16:55;10.70;99.90
19164;DHT22;9714;51.208;4.242;2023-12-22T07:19:25;10.60;99.90
19164;DHT22;9714;51.208;4.242;2023-12-22T07:21:52;10.60;99.90
19164;DHT22;9714;51.208;4.242;2023-12-22T07:24:20;10.50;99.90
19164;DHT22;9714;51.208;4.242;2023-12-22T07:26:47;10.60;99.90
19164;DHT22;9714;51.208;4.242;2023-12-22T07:29:21;10.60;99.90
19164;DHT22;9714;51.208;4.242;2023-12-22T07:31:48;10.50;99.90
19164;DHT22;9714;51.208;4.242;2023-12-22T07:34:21;10.60;99.90
19164;DHT22;9714;51.208;4.242;2023-12-22T07:36:50;10.70;99.90
19164;DHT22;9714;51.208;4.242;2023-12-22T07:39:19;10.70;99.90
19164;DHT22;9714;51.208;4.242;2023-12-22T07:41:47;10.70;99.90
19164;DHT22;9714;51.208;4.242;2023-12-22T07:44:15;10.80;99.90
19164;DHT22;9714;51.208;4.242;2023-12-22T07:46:42;10.80;99.90
19164;DHT22;9714;51.208;4.242;2023-12-22T07:49:09;10.70;99.90
19164;DHT22;9714;51.208;4.242;2023-12-22T07:51:38;10.70;99.90
19164;DHT22;9714;51.208;4.242;2023-12-22T07:54:12;10.70;99.90
19164;DHT22;9714;51.208;4.242;2023-12-22T07:56:39;10.60;99.90
19164;DHT22;9714;51.208;4.242;2023-12-22T07:59:07;10.60;99.90
19164;DHT22;9714;51.208;4.242;2023-12-22T08:01:34;10.50;99.90
19164;DHT22;9714;51.208;4.242;2023-12-22T08:04:01;10.50;99.90
19164;DHT22;9714;51.208;4.242;2023-12-22T08:06:31;10.50;99.90
19164;DHT22;9714;51.208;4.242;2023-12-22T08:09:00;10.50;99.90
19164;DHT22;9714;51.208;4.242;2023-12-22T08:11:29;10.50;99.90
19164;DHT22;9714;51.208;4.242;2023-12-22T08:13:56;10.60;99.90
19164;DHT22;9714;51.208;4.242;2023-12-22T08:16:25;10.60;99.90
19164;DHT22;9714;51.208;4.242;2023-12-22T08:18:52;10.70;99.90
19164;DHT22;9714;51.208;4.242;2023-12-22T08:21:20;10.60;99.90
19164;DHT22;9714;51.208;4.242;2023-12-22T08:23:49;10.80;99.90
19164;DHT22;9714;51.208;4.242;2023-12-22T08:26:16;10.70;99.90
19164;DHT22;9714;51.208;4.242;2023-12-22T08:28:46;10.60;99.90
19164;DHT22;9714;51.208;4.242;2023-12-22T08:31:16;10.70;99.90
19164;DHT22;9714;51.208;4.242;2023-12-22T08:33:44;10.70;99.90
19164;DHT22;9714;51.208;4.242;2023-12-22T08:36:11;10.80;99.90
19164;DHT22;9714;51.208;4.242;2023-12-22T08:38:39;10.80;99.90
19164;DHT22;9714;51.208;4.242;2023-12-22T08:41:07;10.90;99.90
19164;DHT22;9714;51.208;4.242;2023-12-22T08:43:34;10.90;99.90
19164;DHT22;9714;51.208;4.242;2023-12-22T08:46:03;10.90;99.90
19164;DHT22;9714;51.208;4.242;2023-12-22T08:48:32;10.90;99.90
19164;DHT22;9714;51.208;4.242;2023-12-22T08:51:00;10.90;99.90
19164;DHT22;9714;51.208;4.242;2023-12-22T08:53:28;10.90;99.90
19164;DHT22;9714;51.208;4.242;2023-12-22T08:55:55;10.90;99.90
19164;DHT22;9714;51.208;4.242;2023-12-22T08:58:24;10.90;99.90
19164;DHT22;9714;51.208;4.242;2023-12-22T09:00:57;11.00;99.90
19164;DHT22;9714;51.208;4.242;2023-12-22T09:03:29;11.00;99.90
19164;DHT22;9714;51.208;4.242;2023-12-22T09:05:59;11.10;99.90
19164;DHT22;9714;51.208;4.242;2023-12-22T09:08:26;11.10;99.90
19164;DHT22;9714;51.208;4.242;2023-12-22T09:10:54;11.10;99.90
19164;DHT22;9714;51.208;4.242;2023-12-22T09:13:21;11.00;99.90
19164;DHT22;9714;51.208;4.242;2023-12-22T09:15:56;10.90;99.90
19164;DHT22;9714;51.208;4.242;2023-12-22T09:18:24;10.90;99.90
19164;DHT22;9714;51.208;4.242;2023-12-22T09:20:52;10.90;99.90
19164;DHT22;9714;51.208;4.242;2023-12-22T09:23:19;10.90;99.90
19164;DHT22;9714;51.208;4.242;2023-12-22T09:25:48;11.10;99.90
19164;DHT22;9714;51.208;4.242;2023-12-22T09:28:16;11.10;99.90
19164;DHT22;9714;51.208;4.242;2023-12-22T09:30:44;11.10;99.90
19164;DHT22;9714;51.208;4.242;2023-12-22T09:33:13;11.20;99.90
19164;DHT22;9714;51.208;4.242;2023-12-22T09:35:41;11.20;99.90
19164;DHT22;9714;51.208;4.242;2023-12-22T09:38:15;11.30;99.90
19164;DHT22;9714;51.208;4.242;2023-12-22T09:40:44;11.30;99.90
19164;DHT22;9714;51.208;4.242;2023-12-22T09:43:13;11.20;99.90
19164;DHT22;9714;51.208;4.242;2023-12-22T09:45:41;11.30;99.90
19164;DHT22;9714;51.208;4.242;2023-12-22T09:48:15;11.40;99.90
19164;DHT22;9714;51.208;4.242;2023-12-22T09:50:46;11.40;99.90
19164;DHT22;9714;51.208;4.242;2023-12-22T09:53:17;11.40;99.90
19164;DHT22;9714;51.208;4.242;2023-12-22T09:55:50;11.50;99.90
19164;DHT22;9714;51.208;4.242;2023-12-22T09:58:19;11.50;99.90
19164;DHT22;9714;51.208;4.242;2023-12-22T10:00:48;11.50;99.90
19164;DHT22;9714;51.208;4.242;2023-12-22T10:03:17;11.60;99.90
19164;DHT22;9714;51.208;4.242;2023-12-22T10:05:47;11.60;99.90
19164;DHT22;9714;51.208;4.242;2023-12-22T10:08:19;11.60;99.90
19164;DHT22;9714;51.208;4.242;2023-12-22T10:10:54;11.60;99.90
19164;DHT22;9714;51.208;4.242;2023-12-22T10:13:22;11.80;99.90
19164;DHT22;9714;51.208;4.242;2023-12-22T10:15:49;11.80;99.90
19164;DHT22;9714;51.208;4.242;2023-12-22T10:18:19;11.90;99.90
19164;DHT22;9714;51.208;4.242;2023-12-22T10:20:46;12.00;99.90
19164;DHT22;9714;51.208;4.242;2023-12-22T10:23:15;12.10;99.90
19164;DHT22;9714;51.208;4.242;2023-12-22T10:25:45;12.10;99.90
19164;DHT22;9714;51.208;4.242;2023-12-22T10:28:16;12.10;99.90
19164;DHT22;9714;51.208;4.242;2023-12-22T10:30:48;12.10;99.90
19164;DHT22;9714;51.208;4.242;2023-12-22T10:33:19;12.00;99.90
19164;DHT22;9714;51.208;4.242;2023-12-22T10:35:49;12.00;99.90
19164;DHT22;9714;51.208;4.242;2023-12-22T10:38:26;12.00;99.90
19164;DHT22;9714;51.208;4.242;2023-12-22T10:40:58;11.90;99.90
19164;DHT22;9714;51.208;4.242;2023-12-22T10:43:28;11.90;99.90
19164;DHT22;9714;51.208;4.242;2023-12-22T10:45:55;11.90;99.90
19164;DHT22;9714;51.208;4.242;2023-12-22T10:48:29;11.90;99.90
19164;DHT22;9714;51.208;4.242;2023-12-22T10:50:58;11.90;99.90
19164;DHT22;9714;51.208;4.242;2023-12-22T10:53:28;11.80;99.90
19164;DHT22;9714;51.208;4.242;2023-12-22T10:55:58;11.80;99.90
19164;DHT22;9714;51.208;4.242;2023-12-22T10:58:31;11.90;99.90
19164;DHT22;9714;51.208;4.242;2023-12-22T11:00:59;11.80;99.90
19164;DHT22;9714;51.208;4.242;2023-12-22T11:03:31;11.80;99.90
19164;DHT22;9714;51.208;4.242;2023-12-22T11:06:04;11.70;99.90
19164;DHT22;9714;51.208;4.242;2023-12-22T11:08:37;11.70;99.90
19164;DHT22;9714;51.208;4.242;2023-12-22T11:11:15;11.70;99.90
19164;DHT22;9714;51.208;4.242;2023-12-22T11:13:49;11.70;99.90
19164;DHT22;9714;51.208;4.242;2023-12-22T11:16:21;11.70;99.90
19164;DHT22;9714;51.208;4.242;2023-12-22T11:18:49;11.70;99.90
19164;DHT22;9714;51.208;4.242;2023-12-22T11:21:24;11.70;99.90
19164;DHT22;9714;51.208;4.242;2023-12-22T11:23:53;11.70;99.90
19164;DHT22;9714;51.208;4.242;2023-12-22T11:26:28;11.70;99.90
19164;DHT22;9714;51.208;4.242;2023-12-22T11:28:58;11.80;99.90
19164;DHT22;9714;51.208;4.242;2023-12-22T11:31:28;11.80;99.90
19164;DHT22;9714;51.208;4.242;2023-12-22T11:34:01;11.80;99.90
19164;DHT22;9714;51.208;4.242;2023-12-22T11:36:31;11.90;99.90
19164;DHT22;9714;51.208;4.242;2023-12-22T11:39:01;11.90;99.90
19164;DHT22;9714;51.208;4.242;2023-12-22T11:41:33;12.00;99.90
19164;DHT22;9714;51.208;4.242;2023-12-22T11:44:04;12.10;99.90
19164;DHT22;9714;51.208;4.242;2023-12-22T11:46:32;12.30;99.90
19164;DHT22;9714;51.208;4.242;2023-12-22T11:49:06;12.30;99.90
19164;DHT22;9714;51.208;4.242;2023-12-22T11:51:33;12.30;99.90
19164;DHT22;9714;51.208;4.242;2023-12-22T11:57:29;12.40;99.90
19164;DHT22;9714;51.208;4.242;2023-12-22T11:59:58;12.40;99.90
19164;DHT22;9714;51.208;4.242;2023-12-22T12:02:32;12.50;99.90
19164;DHT22;9714;51.208;4.242;2023-12-22T12:04:59;12.50;99.90
19164;DHT22;9714;51.208;4.242;2023-12-22T12:07:45;12.40;99.90
19164;DHT22;9714;51.208;4.242;2023-12-22T12:10:51;12.40;99.90
19164;DHT22;9714;51.208;4.242;2023-12-22T12:13:28;12.40;99.90
19164;DHT22;9714;51.208;4.242;2023-12-22T12:15:55;12.40;99.90
19164;DHT22;9714;51.208;4.242;2023-12-22T12:18:27;12.50;99.90
19164;DHT22;9714;51.208;4.242;2023-12-22T12:20:55;12.40;99.90
19164;DHT22;9714;51.208;4.242;2023-12-22T12:23:25;12.40;99.90
19164;DHT22;9714;51.208;4.242;2023-12-22T12:25:55;12.40;99.90
19164;DHT22;9714;51.208;4.242;2023-12-22T12:28:28;12.40;99.90
19164;DHT22;9714;51.208;4.242;2023-12-22T12:31:04;12.40;99.90
19164;DHT22;9714;51.208;4.242;2023-12-22T12:33:37;12.30;99.90
19164;DHT22;9714;51.208;4.242;2023-12-22T12:36:11;12.40;99.90
19164;DHT22;9714;51.208;4.242;2023-12-22T12:38:45;12.40;99.90
19164;DHT22;9714;51.208;4.242;2023-12-22T12:41:16;12.30;99.90
19164;DHT22;9714;51.208;4.242;2023-12-22T12:43:55;12.40;99.90
19164;DHT22;9714;51.208;4.242;2023-12-22T12:46:23;12.30;99.90
19164;DHT22;9714;51.208;4.242;2023-12-22T12:49:02;12.30;99.90
19164;DHT22;9714;51.208;4.242;2023-12-22T12:51:34;12.30;99.90
19164;DHT22;9714;51.208;4.242;2023-12-22T12:54:03;12.40;99.90
19164;DHT22;9714;51.208;4.242;2023-12-22T12:56:36;12.30;99.90
19164;DHT22;9714;51.208;4.242;2023-12-22T12:59:08;12.30;99.90
19164;DHT22;9714;51.208;4.242;2023-12-22T13:01:42;12.30;99.90
19164;DHT22;9714;51.208;4.242;2023-12-22T13:04:16;12.40;99.90
19164;DHT22;9714;51.208;4.242;2023-12-22T13:06:44;12.20;99.90
19164;DHT22;9714;51.208;4.242;2023-12-22T13:09:13;12.20;99.90
19164;DHT22;9714;51.208;4.242;2023-12-22T13:11:46;12.20;99.90
19164;DHT22;9714;51.208;4.242;2023-12-22T13:14:23;12.30;99.90
19164;DHT22;9714;51.208;4.242;2023-12-22T13:16:52;12.30;99.90
19164;DHT22;9714;51.208;4.242;2023-12-22T13:19:23;12.20;99.90
19164;DHT22;9714;51.208;4.242;2023-12-22T13:21:54;12.20;99.90
19164;DHT22;9714;51.208;4.242;2023-12-22T13:24:27;12.10;99.90
19164;DHT22;9714;51.208;4.242;2023-12-22T13:27:01;12.10;99.90
19164;DHT22;9714;51.208;4.242;2023-12-22T13:29:30;12.10;99.90
19164;DHT22;9714;51.208;4.242;2023-12-22T13:32:17;12.10;99.90
19164;DHT22;9714;51.208;4.242;2023-12-22T13:34:51;12.10;99.90
19164;DHT22;9714;51.208;4.242;2023-12-22T13:37:20;12.10;99.90
19164;DHT22;9714;51.208;4.242;2023-12-22T13:39:50;12.00;99.90
19164;DHT22;9714;51.208;4.242;2023-12-22T13:42:19;12.00;99.90
19164;DHT22;9714;51.208;4.242;2023-12-22T13:44:48;12.10;99.90
19164;DHT22;9714;51.208;4.242;2023-12-22T13:47:23;12.20;99.90
19164;DHT22;9714;51.208;4.242;2023-12-22T13:49:51;12.20;99.90
19164;DHT22;9714;51.208;4.242;2023-12-22T13:52:26;12.20;99.90
19164;DHT22;9714;51.208;4.242;2023-12-22T13:54:54;12.20;99.90
19164;DHT22;9714;51.208;4.242;2023-12-22T13:57:24;12.20;99.90
19164;DHT22;9714;51.208;4.242;2023-12-22T13:59:52;12.20;99.90
19164;DHT22;9714;51.208;4.242;2023-12-22T14:02:21;12.20;99.90
19164;DHT22;9714;51.208;4.242;2023-12-22T14:04:49;12.30;99.90
19164;DHT22;9714;51.208;4.242;2023-12-22T14:07:18;12.30;99.90
19164;DHT22;9714;51.208;4.242;2023-12-22T14:09:45;12.20;99.90
19164;DHT22;9714;51.208;4.242;2023-12-22T14:12:15;12.20;99.90
19164;DHT22;9714;51.208;4.242;2023-12-22T14:14:45;12.10;99.90
19164;DHT22;9714;51.208;4.242;2023-12-22T14:17:16;12.30;99.90
19164;DHT22;9714;51.208;4.242;2023-12-22T14:19:45;12.30;99.90
19164;DHT22;9714;51.208;4.242;2023-12-22T14:22:13;12.20;99.90
19164;DHT22;9714;51.208;4.242;2023-12-22T14:24:40;12.20;99.90
19164;DHT22;9714;51.208;4.242;2023-12-22T14:27:07;12.30;99.90
19164;DHT22;9714;51.208;4.242;2023-12-22T14:29:38;12.20;99.90
19164;DHT22;9714;51.208;4.242;2023-12-22T14:32:06;12.10;99.90
19164;DHT22;9714;51.208;4.242;2023-12-22T14:34:35;12.20;99.90
19164;DHT22;9714;51.208;4.242;2023-12-22T14:37:08;12.10;99.90
19164;DHT22;9714;51.208;4.242;2023-12-22T14:39:41;12.20;99.90
19164;DHT22;9714;51.208;4.242;2023-12-22T14:42:08;12.30;99.90
19164;DHT22;9714;51.208;4.242;2023-12-22T14:44:38;12.20;99.90
19164;DHT22;9714;51.208;4.242;2023-12-22T14:47:06;12.20;99.90
19164;DHT22;9714;51.208;4.242;2023-12-22T14:49:38;12.20;99.90
19164;DHT22;9714;51.208;4.242;2023-12-22T14:52:06;12.30;99.90
19164;DHT22;9714;51.208;4.242;2023-12-22T14:54:34;12.30;99.90
19164;DHT22;9714;51.208;4.242;2023-12-22T14:57:07;12.30;99.90
19164;DHT22;9714;51.208;4.242;2023-12-22T14:59:44;12.30;99.90
19164;DHT22;9714;51.208;4.242;2023-12-22T15:02:17;12.20;99.90
19164;DHT22;9714;51.208;4.242;2023-12-22T15:04:48;12.10;99.90
19164;DHT22;9714;51.208;4.242;2023-12-22T15:07:15;12.10;99.90
19164;DHT22;9714;51.208;4.242;2023-12-22T15:09:45;12.10;99.90
19164;DHT22;9714;51.208;4.242;2023-12-22T15:12:17;12.10;99.90
19164;DHT22;9714;51.208;4.242;2023-12-22T15:14:45;12.10;99.90
19164;DHT22;9714;51.208;4.242;2023-12-22T15:17:14;12.00;99.90
19164;DHT22;9714;51.208;4.242;2023-12-22T15:19:45;12.10;99.90
19164;DHT22;9714;51.208;4.242;2023-12-22T15:22:14;12.20;99.90
19164;DHT22;9714;51.208;4.242;2023-12-22T15:24:45;12.20;99.90
19164;DHT22;9714;51.208;4.242;2023-12-22T15:27:14;12.20;99.90
19164;DHT22;9714;51.208;4.242;2023-12-22T15:29:47;12.20;99.90
19164;DHT22;9714;51.208;4.242;2023-12-22T15:32:15;12.10;99.90
19164;DHT22;9714;51.208;4.242;2023-12-22T15:34:55;12.10;99.90
19164;DHT22;9714;51.208;4.242;2023-12-22T15:37:24;12.20;99.90
19164;DHT22;9714;51.208;4.242;2023-12-22T15:39:52;12.20;99.90
19164;DHT22;9714;51.208;4.242;2023-12-22T15:42:19;12.10;99.90
19164;DHT22;9714;51.208;4.242;2023-12-22T15:44:50;12.10;99.90
19164;DHT22;9714;51.208;4.242;2023-12-22T15:47:17;12.20;99.90
19164;DHT22;9714;51.208;4.242;2023-12-22T15:49:45;12.20;99.90
19164;DHT22;9714;51.208;4.242;2023-12-22T15:52:18;12.20;99.90
19164;DHT22;9714;51.208;4.242;2023-12-22T15:54:48;12.20;99.90
19164;DHT22;9714;51.208;4.242;2023-12-22T15:57:15;12.20;99.90
19164;DHT22;9714;51.208;4.242;2023-12-22T15:59:42;12.30;99.90
19164;DHT22;9714;51.208;4.242;2023-12-22T16:02:09;12.30;99.90
19164;DHT22;9714;51.208;4.242;2023-12-22T16:04:37;12.20;99.90
19164;DHT22;9714;51.208;4.242;2023-12-22T16:07:06;12.30;99.90
19164;DHT22;9714;51.208;4.242;2023-12-22T16:09:34;12.20;99.90
19164;DHT22;9714;51.208;4.242;2023-12-22T16:12:03;12.30;99.90
19164;DHT22;9714;51.208;4.242;2023-12-22T16:14:32;12.30;99.90